sensor_id;sensor_type;location;lat;lon;timestamp;P1;durP1;ratioP1;P2;durP2;ratioP2
9914;SDS011;4996;48.746;9.174;2024-01-30T00:02:11;7.63;;;5.20;;
9914;SDS011;4996;48.746;9.174;2024-01-30T00:04:36;8.80;;;4.20;;
9914;SDS011;4996;48.746;9.174;2024-01-30T00:07:02;9.83;;;5.07;;
9914;SDS011;4996;48.746;9.174;2024-01-30T00:09:28;6.70;;;5.00;;
9914;SDS011;4996;48.746;9.174;2024-01-30T00:11:54;6.60;;;4.60;;
9914;SDS011;4996;48.746;9.174;2024-01-30T00:14:19;8.80;;;5.33;;
9914;SDS011;4996;48.746;9.174;2024-01-30T00:16:44;7.13;;;5.40;;
9914;SDS011;4996;48.746;9.174;2024-01-30T00:19:10;5.33;;;3.80;;
9914;SDS011;4996;48.746;9.174;2024-01-30T00:21:36;7.37;;;5.07;;
9914;SDS011;4996;48.746;9.174;2024-01-30T00:24:02;7.33;;;4.80;;
9914;SDS011;4996;48.746;9.174;2024-01-30T00:26:28;7.27;;;4.20;;
9914;SDS011;4996;48.746;9.174;2024-01-30T00:28:53;6.10;;;4.67;;
9914;SDS011;4996;48.746;9.174;2024-01-30T00:31:19;5.50;;;4.40;;
9914;SDS011;4996;48.746;9.174;2024-01-30T00:33:44;9.43;;;5.37;;
9914;SDS011;4996;48.746;9.174;2024-01-30T00:36:10;5.83;;;4.00;;
9914;SDS011;4996;48.746;9.174;2024-01-30T00:38:35;7.87;;;4.33;;
9914;SDS011;4996;48.746;9.174;2024-01-30T00:41:02;6.10;;;4.17;;
9914;SDS011;4996;48.746;9.174;2024-01-30T00:43:28;8.20;;;5.10;;
9914;SDS011;4996;48.746;9.174;2024-01-30T00:45:53;5.93;;;3.77;;
9914;SDS011;4996;48.746;9.174;2024-01-30T00:48:19;6.33;;;4.00;;
9914;SDS011;4996;48.746;9.174;2024-01-30T00:50:45;6.17;;;4.37;;
9914;SDS011;4996;48.746;9.174;2024-01-30T00:53:11;5.73;;;4.60;;
9914;SDS011;4996;48.746;9.174;2024-01-30T00:55:36;5.97;;;4.43;;
9914;SDS011;4996;48.746;9.174;2024-01-30T00:58:02;9.43;;;5.47;;
9914;SDS011;4996;48.746;9.174;2024-01-30T01:00:28;7.27;;;3.90;;
9914;SDS011;4996;48.746;9.174;2024-01-30T01:02:54;6.43;;;4.17;;
9914;SDS011;4996;48.746;9.174;2024-01-30T01:05:20;6.70;;;4.37;;
9914;SDS011;4996;48.746;9.174;2024-01-30T01:07:46;8.73;;;5.50;;
9914;SDS011;4996;48.746;9.174;2024-01-30T01:10:13;8.53;;;5.47;;
9914;SDS011;4996;48.746;9.174;2024-01-30T01:12:39;6.40;;;5.40;;
9914;SDS011;4996;48.746;9.174;2024-01-30T01:15:05;6.07;;;4.33;;
9914;SDS011;4996;48.746;9.174;2024-01-30T01:17:34;7.13;;;4.07;;
9914;SDS011;4996;48.746;9.174;2024-01-30T01:19:59;9.10;;;5.03;;
9914;SDS011;4996;48.746;9.174;2024-01-30T01:22:25;6.33;;;5.03;;
9914;SDS011;4996;48.746;9.174;2024-01-30T01:24:51;10.10;;;5.37;;
9914;SDS011;4996;48.746;9.174;2024-01-30T01:27:16;8.30;;;4.83;;
9914;SDS011;4996;48.746;9.174;2024-01-30T01:29:42;7.93;;;4.93;;
9914;SDS011;4996;48.746;9.174;2024-01-30T01:32:08;7.20;;;4.13;;
9914;SDS011;4996;48.746;9.174;2024-01-30T01:34:33;7.30;;;4.83;;
9914;SDS011;4996;48.746;9.174;2024-01-30T01:36:59;6.50;;;4.53;;
9914;SDS011;4996;48.746;9.174;2024-01-30T01:39:25;7.43;;;5.03;;
9914;SDS011;4996;48.746;9.174;2024-01-30T01:41:50;7.73;;;5.07;;
9914;SDS011;4996;48.746;9.174;2024-01-30T01:44:17;7.17;;;5.23;;
9914;SDS011;4996;48.746;9.174;2024-01-30T01:46:43;8.40;;;4.83;;
9914;SDS011;4996;48.746;9.174;2024-01-30T01:49:09;11.90;;;4.80;;
9914;SDS011;4996;48.746;9.174;2024-01-30T01:51:35;9.50;;;5.37;;
9914;SDS011;4996;48.746;9.174;2024-01-30T01:54:03;7.20;;;4.23;;
9914;SDS011;4996;48.746;9.174;2024-01-30T01:56:30;6.00;;;4.67;;
9914;SDS011;4996;48.746;9.174;2024-01-30T01:58:56;8.53;;;4.93;;
9914;SDS011;4996;48.746;9.174;2024-01-30T02:01:25;7.87;;;4.23;;
9914;SDS011;4996;48.746;9.174;2024-01-30T02:03:52;5.30;;;3.70;;
9914;SDS011;4996;48.746;9.174;2024-01-30T02:06:18;5.00;;;4.40;;
9914;SDS011;4996;48.746;9.174;2024-01-30T02:08:44;7.60;;;5.43;;
9914;SDS011;4996;48.746;9.174;2024-01-30T02:11:09;4.97;;;3.80;;
9914;SDS011;4996;48.746;9.174;2024-01-30T02:13:36;5.30;;;4.30;;
9914;SDS011;4996;48.746;9.174;2024-01-30T02:16:02;7.10;;;5.07;;
9914;SDS011;4996;48.746;9.174;2024-01-30T02:18:27;6.23;;;4.13;;
9914;SDS011;4996;48.746;9.174;2024-01-30T02:20:53;6.90;;;4.87;;
9914;SDS011;4996;48.746;9.174;2024-01-30T02:23:21;6.10;;;4.10;;
9914;SDS011;4996;48.746;9.174;2024-01-30T02:25:50;8.53;;;4.80;;
9914;SDS011;4996;48.746;9.174;2024-01-30T02:28:18;8.40;;;5.13;;
9914;SDS011;4996;48.746;9.174;2024-01-30T02:30:45;5.40;;;3.97;;
9914;SDS011;4996;48.746;9.174;2024-01-30T02:33:11;7.30;;;4.50;;
9914;SDS011;4996;48.746;9.174;2024-01-30T02:35:37;7.00;;;4.20;;
9914;SDS011;4996;48.746;9.174;2024-01-30T02:38:03;6.43;;;4.53;;
9914;SDS011;4996;48.746;9.174;2024-01-30T02:40:29;10.57;;;4.60;;
9914;SDS011;4996;48.746;9.174;2024-01-30T02:42:54;6.10;;;4.33;;
9914;SDS011;4996;48.746;9.174;2024-01-30T02:45:20;14.43;;;4.43;;
9914;SDS011;4996;48.746;9.174;2024-01-30T02:47:46;8.80;;;5.03;;
9914;SDS011;4996;48.746;9.174;2024-01-30T02:50:12;8.43;;;4.70;;
9914;SDS011;4996;48.746;9.174;2024-01-30T02:52:38;6.67;;;3.83;;
9914;SDS011;4996;48.746;9.174;2024-01-30T02:55:03;5.77;;;4.50;;
9914;SDS011;4996;48.746;9.174;2024-01-30T02:57:29;5.43;;;4.23;;
9914;SDS011;4996;48.746;9.174;2024-01-30T02:59:55;8.03;;;4.60;;
9914;SDS011;4996;48.746;9.174;2024-01-30T03:02:20;4.80;;;4.20;;
9914;SDS011;4996;48.746;9.174;2024-01-30T03:04:46;6.40;;;4.50;;
9914;SDS011;4996;48.746;9.174;2024-01-30T03:07:11;9.20;;;5.00;;
9914;SDS011;4996;48.746;9.174;2024-01-30T03:09:37;7.37;;;5.13;;
9914;SDS011;4996;48.746;9.174;2024-01-30T03:12:03;6.50;;;5.37;;
9914;SDS011;4996;48.746;9.174;2024-01-30T03:14:32;11.27;;;4.80;;
9914;SDS011;4996;48.746;9.174;2024-01-30T03:16:58;6.57;;;4.27;;
9914;SDS011;4996;48.746;9.174;2024-01-30T03:19:23;6.20;;;4.93;;
9914;SDS011;4996;48.746;9.174;2024-01-30T03:21:49;8.30;;;4.30;;
9914;SDS011;4996;48.746;9.174;2024-01-30T03:24:16;7.87;;;4.53;;
9914;SDS011;4996;48.746;9.174;2024-01-30T03:26:42;8.50;;;5.97;;
9914;SDS011;4996;48.746;9.174;2024-01-30T03:29:08;8.13;;;4.93;;
9914;SDS011;4996;48.746;9.174;2024-01-30T03:31:33;6.80;;;3.97;;
9914;SDS011;4996;48.746;9.174;2024-01-30T03:33:59;8.60;;;4.70;;
9914;SDS011;4996;48.746;9.174;2024-01-30T03:36:26;8.38;;;4.53;;
9914;SDS011;4996;48.746;9.174;2024-01-30T03:38:51;6.20;;;3.70;;
9914;SDS011;4996;48.746;9.174;2024-01-30T03:41:17;5.07;;;3.80;;
9914;SDS011;4996;48.746;9.174;2024-01-30T03:43:43;6.30;;;4.27;;
9914;SDS011;4996;48.746;9.174;2024-01-30T03:46:08;6.30;;;4.27;;
9914;SDS011;4996;48.746;9.174;2024-01-30T03:48:34;8.33;;;5.43;;
9914;SDS011;4996;48.746;9.174;2024-01-30T03:50:59;11.93;;;5.20;;
9914;SDS011;4996;48.746;9.174;2024-01-30T03:53:25;6.27;;;5.20;;
9914;SDS011;4996;48.746;9.174;2024-01-30T03:55:51;8.10;;;4.40;;
9914;SDS011;4996;48.746;9.174;2024-01-30T03:58:16;4.80;;;3.30;;
9914;SDS011;4996;48.746;9.174;2024-01-30T04:00:42;6.70;;;4.20;;
9914;SDS011;4996;48.746;9.174;2024-01-30T04:03:07;6.90;;;4.30;;
9914;SDS011;4996;48.746;9.174;2024-01-30T04:05:33;10.27;;;5.57;;
9914;SDS011;4996;48.746;9.174;2024-01-30T04:08:00;8.40;;;5.80;;
9914;SDS011;4996;48.746;9.174;2024-01-30T04:10:25;5.87;;;4.30;;
9914;SDS011;4996;48.746;9.174;2024-01-30T04:12:51;7.33;;;4.27;;
9914;SDS011;4996;48.746;9.174;2024-01-30T04:15:17;5.13;;;3.90;;
9914;SDS011;4996;48.746;9.174;2024-01-30T04:17:43;4.85;;;4.13;;
9914;SDS011;4996;48.746;9.174;2024-01-30T04:20:13;7.00;;;4.27;;
9914;SDS011;4996;48.746;9.174;2024-01-30T04:22:39;12.40;;;5.25;;
9914;SDS011;4996;48.746;9.174;2024-01-30T04:25:05;8.83;;;4.40;;
9914;SDS011;4996;48.746;9.174;2024-01-30T04:27:31;5.60;;;3.77;;
9914;SDS011;4996;48.746;9.174;2024-01-30T04:29:56;7.47;;;5.20;;
9914;SDS011;4996;48.746;9.174;2024-01-30T04:32:22;6.50;;;5.00;;
9914;SDS011;4996;48.746;9.174;2024-01-30T04:34:47;5.67;;;4.67;;
9914;SDS011;4996;48.746;9.174;2024-01-30T04:37:13;6.40;;;4.87;;
9914;SDS011;4996;48.746;9.174;2024-01-30T04:39:38;9.80;;;5.60;;
9914;SDS011;4996;48.746;9.174;2024-01-30T04:42:04;5.30;;;4.37;;
9914;SDS011;4996;48.746;9.174;2024-01-30T04:44:30;7.07;;;4.83;;
9914;SDS011;4996;48.746;9.174;2024-01-30T04:46:55;7.03;;;4.53;;
9914;SDS011;4996;48.746;9.174;2024-01-30T04:49:24;6.97;;;4.43;;
9914;SDS011;4996;48.746;9.174;2024-01-30T04:51:49;5.10;;;4.50;;
9914;SDS011;4996;48.746;9.174;2024-01-30T04:54:15;9.63;;;4.60;;
9914;SDS011;4996;48.746;9.174;2024-01-30T04:56:40;8.90;;;4.17;;
9914;SDS011;4996;48.746;9.174;2024-01-30T04:59:06;6.67;;;4.10;;
9914;SDS011;4996;48.746;9.174;2024-01-30T05:01:33;7.10;;;4.45;;
9914;SDS011;4996;48.746;9.174;2024-01-30T05:03:59;9.00;;;4.93;;
9914;SDS011;4996;48.746;9.174;2024-01-30T05:06:25;4.82;;;4.05;;
9914;SDS011;4996;48.746;9.174;2024-01-30T05:08:51;6.30;;;4.38;;
9914;SDS011;4996;48.746;9.174;2024-01-30T05:11:17;7.63;;;4.10;;
9914;SDS011;4996;48.746;9.174;2024-01-30T05:13:42;6.73;;;4.90;;
9914;SDS011;4996;48.746;9.174;2024-01-30T05:16:08;8.20;;;5.27;;
9914;SDS011;4996;48.746;9.174;2024-01-30T05:18:33;6.00;;;4.23;;
9914;SDS011;4996;48.746;9.174;2024-01-30T05:20:59;8.70;;;5.27;;
9914;SDS011;4996;48.746;9.174;2024-01-30T05:23:24;7.40;;;4.93;;
9914;SDS011;4996;48.746;9.174;2024-01-30T05:25:50;7.63;;;5.87;;
9914;SDS011;4996;48.746;9.174;2024-01-30T05:28:16;8.83;;;5.20;;
9914;SDS011;4996;48.746;9.174;2024-01-30T05:30:41;6.13;;;4.23;;
9914;SDS011;4996;48.746;9.174;2024-01-30T05:33:07;8.00;;;5.30;;
9914;SDS011;4996;48.746;9.174;2024-01-30T05:35:32;6.60;;;4.90;;
9914;SDS011;4996;48.746;9.174;2024-01-30T05:37:58;6.40;;;4.43;;
9914;SDS011;4996;48.746;9.174;2024-01-30T05:40:24;7.00;;;4.90;;
9914;SDS011;4996;48.746;9.174;2024-01-30T05:42:49;7.20;;;4.93;;
9914;SDS011;4996;48.746;9.174;2024-01-30T05:45:15;7.33;;;3.93;;
9914;SDS011;4996;48.746;9.174;2024-01-30T05:47:40;8.37;;;4.83;;
9914;SDS011;4996;48.746;9.174;2024-01-30T05:50:06;10.00;;;5.20;;
9914;SDS011;4996;48.746;9.174;2024-01-30T05:52:32;6.72;;;4.40;;
9914;SDS011;4996;48.746;9.174;2024-01-30T05:54:57;7.40;;;5.43;;
9914;SDS011;4996;48.746;9.174;2024-01-30T05:57:23;8.37;;;5.13;;
9914;SDS011;4996;48.746;9.174;2024-01-30T05:59:48;13.60;;;7.53;;
9914;SDS011;4996;48.746;9.174;2024-01-30T06:02:16;12.57;;;6.93;;
9914;SDS011;4996;48.746;9.174;2024-01-30T06:04:42;7.53;;;5.63;;
9914;SDS011;4996;48.746;9.174;2024-01-30T06:07:07;7.40;;;5.27;;
9914;SDS011;4996;48.746;9.174;2024-01-30T06:09:33;12.20;;;6.20;;
9914;SDS011;4996;48.746;9.174;2024-01-30T06:11:58;8.50;;;6.57;;
9914;SDS011;4996;48.746;9.174;2024-01-30T06:14:24;15.40;;;8.17;;
9914;SDS011;4996;48.746;9.174;2024-01-30T06:16:49;8.60;;;5.50;;
9914;SDS011;4996;48.746;9.174;2024-01-30T06:19:15;10.20;;;6.10;;
9914;SDS011;4996;48.746;9.174;2024-01-30T06:21:40;5.97;;;4.40;;
9914;SDS011;4996;48.746;9.174;2024-01-30T06:24:06;11.80;;;5.77;;
9914;SDS011;4996;48.746;9.174;2024-01-30T06:26:32;8.13;;;5.30;;
9914;SDS011;4996;48.746;9.174;2024-01-30T06:28:57;8.73;;;5.90;;
9914;SDS011;4996;48.746;9.174;2024-01-30T06:31:23;10.33;;;6.07;;
9914;SDS011;4996;48.746;9.174;2024-01-30T06:33:49;9.73;;;5.27;;
9914;SDS011;4996;48.746;9.174;2024-01-30T06:36:14;7.53;;;5.47;;
9914;SDS011;4996;48.746;9.174;2024-01-30T06:38:40;15.07;;;5.90;;
9914;SDS011;4996;48.746;9.174;2024-01-30T06:41:06;9.23;;;6.00;;
9914;SDS011;4996;48.746;9.174;2024-01-30T06:43:31;10.17;;;5.93;;
9914;SDS011;4996;48.746;9.174;2024-01-30T06:45:57;10.87;;;5.90;;
9914;SDS011;4996;48.746;9.174;2024-01-30T06:48:23;13.93;;;6.67;;
9914;SDS011;4996;48.746;9.174;2024-01-30T06:50:48;9.70;;;6.47;;
9914;SDS011;4996;48.746;9.174;2024-01-30T06:53:14;7.80;;;5.60;;
9914;SDS011;4996;48.746;9.174;2024-01-30T06:55:40;9.50;;;6.03;;
9914;SDS011;4996;48.746;9.174;2024-01-30T06:58:05;8.30;;;4.97;;
9914;SDS011;4996;48.746;9.174;2024-01-30T07:00:31;11.67;;;6.40;;
9914;SDS011;4996;48.746;9.174;2024-01-30T07:02:56;10.53;;;6.70;;
9914;SDS011;4996;48.746;9.174;2024-01-30T07:05:22;11.63;;;5.53;;
9914;SDS011;4996;48.746;9.174;2024-01-30T07:07:47;9.73;;;6.27;;
9914;SDS011;4996;48.746;9.174;2024-01-30T07:10:13;10.13;;;6.17;;
9914;SDS011;4996;48.746;9.174;2024-01-30T07:12:38;8.30;;;6.20;;
9914;SDS011;4996;48.746;9.174;2024-01-30T07:15:04;9.93;;;5.77;;
9914;SDS011;4996;48.746;9.174;2024-01-30T07:17:33;10.43;;;6.40;;
9914;SDS011;4996;48.746;9.174;2024-01-30T07:19:58;13.00;;;6.43;;
9914;SDS011;4996;48.746;9.174;2024-01-30T07:22:24;7.07;;;5.13;;
9914;SDS011;4996;48.746;9.174;2024-01-30T07:24:49;9.53;;;5.30;;
9914;SDS011;4996;48.746;9.174;2024-01-30T07:27:16;9.07;;;6.35;;
9914;SDS011;4996;48.746;9.174;2024-01-30T07:29:43;10.07;;;6.00;;
9914;SDS011;4996;48.746;9.174;2024-01-30T07:32:08;6.97;;;5.77;;
9914;SDS011;4996;48.746;9.174;2024-01-30T07:34:34;9.20;;;6.10;;
9914;SDS011;4996;48.746;9.174;2024-01-30T07:37:01;12.02;;;7.65;;
9914;SDS011;4996;48.746;9.174;2024-01-30T07:39:27;11.73;;;6.40;;
9914;SDS011;4996;48.746;9.174;2024-01-30T07:41:53;9.00;;;4.53;;
9914;SDS011;4996;48.746;9.174;2024-01-30T07:44:19;8.20;;;4.90;;
9914;SDS011;4996;48.746;9.174;2024-01-30T07:46:45;10.10;;;6.50;;
9914;SDS011;4996;48.746;9.174;2024-01-30T07:49:10;10.30;;;5.63;;
9914;SDS011;4996;48.746;9.174;2024-01-30T07:51:36;9.80;;;5.50;;
9914;SDS011;4996;48.746;9.174;2024-01-30T07:54:02;9.73;;;5.80;;
9914;SDS011;4996;48.746;9.174;2024-01-30T07:56:27;7.70;;;6.60;;
9914;SDS011;4996;48.746;9.174;2024-01-30T07:58:53;12.10;;;7.00;;
9914;SDS011;4996;48.746;9.174;2024-01-30T08:01:18;12.13;;;6.90;;
9914;SDS011;4996;48.746;9.174;2024-01-30T08:03:44;13.70;;;8.40;;
9914;SDS011;4996;48.746;9.174;2024-01-30T08:06:09;17.57;;;8.93;;
9914;SDS011;4996;48.746;9.174;2024-01-30T08:08:35;11.27;;;7.13;;
9914;SDS011;4996;48.746;9.174;2024-01-30T08:11:00;12.07;;;7.53;;
9914;SDS011;4996;48.746;9.174;2024-01-30T08:13:26;9.93;;;7.67;;
9914;SDS011;4996;48.746;9.174;2024-01-30T08:15:52;11.07;;;7.87;;
9914;SDS011;4996;48.746;9.174;2024-01-30T08:18:18;13.63;;;7.60;;
9914;SDS011;4996;48.746;9.174;2024-01-30T08:20:43;12.87;;;7.43;;
9914;SDS011;4996;48.746;9.174;2024-01-30T08:23:09;14.50;;;8.37;;
9914;SDS011;4996;48.746;9.174;2024-01-30T08:25:35;12.20;;;7.53;;
9914;SDS011;4996;48.746;9.174;2024-01-30T08:28:01;11.63;;;7.40;;
9914;SDS011;4996;48.746;9.174;2024-01-30T08:30:27;12.23;;;6.93;;
9914;SDS011;4996;48.746;9.174;2024-01-30T08:32:52;12.60;;;6.50;;
9914;SDS011;4996;48.746;9.174;2024-01-30T08:35:18;17.33;;;7.23;;
9914;SDS011;4996;48.746;9.174;2024-01-30T08:37:43;10.77;;;7.00;;
9914;SDS011;4996;48.746;9.174;2024-01-30T08:40:09;7.53;;;6.20;;
9914;SDS011;4996;48.746;9.174;2024-01-30T08:42:35;6.93;;;5.80;;
9914;SDS011;4996;48.746;9.174;2024-01-30T08:45:00;9.40;;;5.80;;
9914;SDS011;4996;48.746;9.174;2024-01-30T08:47:26;13.30;;;5.90;;
9914;SDS011;4996;48.746;9.174;2024-01-30T08:49:51;9.50;;;6.00;;
9914;SDS011;4996;48.746;9.174;2024-01-30T08:52:17;9.20;;;6.27;;
9914;SDS011;4996;48.746;9.174;2024-01-30T08:54:42;9.13;;;5.23;;
9914;SDS011;4996;48.746;9.174;2024-01-30T08:57:08;10.83;;;6.60;;
9914;SDS011;4996;48.746;9.174;2024-01-30T08:59:34;9.37;;;5.70;;
9914;SDS011;4996;48.746;9.174;2024-01-30T09:01:59;9.03;;;6.10;;
9914;SDS011;4996;48.746;9.174;2024-01-30T09:04:25;11.10;;;6.57;;
9914;SDS011;4996;48.746;9.174;2024-01-30T09:06:50;7.27;;;5.23;;
9914;SDS011;4996;48.746;9.174;2024-01-30T09:09:16;14.00;;;5.40;;
9914;SDS011;4996;48.746;9.174;2024-01-30T09:11:42;7.00;;;5.23;;
9914;SDS011;4996;48.746;9.174;2024-01-30T09:14:08;9.47;;;5.67;;
9914;SDS011;4996;48.746;9.174;2024-01-30T09:16:34;7.60;;;5.27;;
9914;SDS011;4996;48.746;9.174;2024-01-30T09:18:59;8.60;;;5.90;;
9914;SDS011;4996;48.746;9.174;2024-01-30T09:21:25;9.07;;;5.00;;
9914;SDS011;4996;48.746;9.174;2024-01-30T09:23:52;9.43;;;6.20;;
9914;SDS011;4996;48.746;9.174;2024-01-30T09:26:19;10.37;;;6.53;;
9914;SDS011;4996;48.746;9.174;2024-01-30T09:28:44;9.03;;;6.50;;
9914;SDS011;4996;48.746;9.174;2024-01-30T09:31:10;6.00;;;5.03;;
9914;SDS011;4996;48.746;9.174;2024-01-30T09:33:36;8.47;;;6.20;;
9914;SDS011;4996;48.746;9.174;2024-01-30T09:36:02;11.77;;;6.23;;
9914;SDS011;4996;48.746;9.174;2024-01-30T09:38:27;12.33;;;5.23;;
9914;SDS011;4996;48.746;9.174;2024-01-30T09:40:56;7.93;;;5.60;;
9914;SDS011;4996;48.746;9.174;2024-01-30T09:43:28;10.63;;;6.13;;
9914;SDS011;4996;48.746;9.174;2024-01-30T09:45:59;8.07;;;5.83;;
9914;SDS011;4996;48.746;9.174;2024-01-30T09:48:26;8.80;;;5.13;;
9914;SDS011;4996;48.746;9.174;2024-01-30T09:50:52;8.73;;;5.30;;
9914;SDS011;4996;48.746;9.174;2024-01-30T09:53:18;12.37;;;6.33;;
9914;SDS011;4996;48.746;9.174;2024-01-30T09:55:44;7.03;;;5.27;;
9914;SDS011;4996;48.746;9.174;2024-01-30T09:58:12;11.03;;;6.07;;
9914;SDS011;4996;48.746;9.174;2024-01-30T10:00:38;9.90;;;6.10;;
9914;SDS011;4996;48.746;9.174;2024-01-30T10:03:03;7.80;;;5.30;;
9914;SDS011;4996;48.746;9.174;2024-01-30T10:05:29;12.73;;;5.97;;
9914;SDS011;4996;48.746;9.174;2024-01-30T10:07:59;10.20;;;5.37;;
9914;SDS011;4996;48.746;9.174;2024-01-30T10:10:24;7.23;;;5.53;;
9914;SDS011;4996;48.746;9.174;2024-01-30T10:12:51;8.30;;;5.07;;
9914;SDS011;4996;48.746;9.174;2024-01-30T10:15:17;8.60;;;5.40;;
9914;SDS011;4996;48.746;9.174;2024-01-30T10:17:44;12.97;;;5.30;;
9914;SDS011;4996;48.746;9.174;2024-01-30T10:20:10;14.10;;;5.73;;
9914;SDS011;4996;48.746;9.174;2024-01-30T10:22:36;10.00;;;5.60;;
9914;SDS011;4996;48.746;9.174;2024-01-30T10:25:01;8.60;;;5.53;;
9914;SDS011;4996;48.746;9.174;2024-01-30T10:27:28;13.13;;;5.00;;
9914;SDS011;4996;48.746;9.174;2024-01-30T10:29:54;14.83;;;4.63;;
9914;SDS011;4996;48.746;9.174;2024-01-30T10:32:20;9.20;;;4.77;;
9914;SDS011;4996;48.746;9.174;2024-01-30T10:34:46;8.93;;;4.40;;
9914;SDS011;4996;48.746;9.174;2024-01-30T10:37:11;5.13;;;3.23;;
9914;SDS011;4996;48.746;9.174;2024-01-30T10:39:40;5.23;;;3.40;;
9914;SDS011;4996;48.746;9.174;2024-01-30T10:42:07;5.37;;;3.60;;
9914;SDS011;4996;48.746;9.174;2024-01-30T10:44:51;4.67;;;3.00;;
9914;SDS011;4996;48.746;9.174;2024-01-30T10:47:25;5.13;;;3.13;;
9914;SDS011;4996;48.746;9.174;2024-01-30T10:49:52;3.57;;;2.83;;
9914;SDS011;4996;48.746;9.174;2024-01-30T10:52:18;5.83;;;3.47;;
9914;SDS011;4996;48.746;9.174;2024-01-30T10:54:45;7.13;;;2.83;;
9914;SDS011;4996;48.746;9.174;2024-01-30T10:57:12;6.60;;;2.50;;
9914;SDS011;4996;48.746;9.174;2024-01-30T10:59:40;2.37;;;1.60;;
9914;SDS011;4996;48.746;9.174;2024-01-30T11:02:07;6.33;;;2.40;;
9914;SDS011;4996;48.746;9.174;2024-01-30T11:04:54;5.53;;;2.30;;
9914;SDS011;4996;48.746;9.174;2024-01-30T11:07:25;5.17;;;2.60;;
9914;SDS011;4996;48.746;9.174;2024-01-30T11:10:13;3.77;;;2.57;;
9914;SDS011;4996;48.746;9.174;2024-01-30T11:12:40;3.23;;;2.13;;
9914;SDS011;4996;48.746;9.174;2024-01-30T11:15:11;2.77;;;2.00;;
9914;SDS011;4996;48.746;9.174;2024-01-30T11:20:10;3.50;;;2.33;;
9914;SDS011;4996;48.746;9.174;2024-01-30T11:23:01;3.87;;;2.80;;
9914;SDS011;4996;48.746;9.174;2024-01-30T11:25:32;5.23;;;3.30;;
9914;SDS011;4996;48.746;9.174;2024-01-30T11:27:58;4.27;;;3.27;;
9914;SDS011;4996;48.746;9.174;2024-01-30T11:30:33;2.87;;;2.20;;
9914;SDS011;4996;48.746;9.174;2024-01-30T11:35:40;4.07;;;2.93;;
9914;SDS011;4996;48.746;9.174;2024-01-30T11:38:10;12.03;;;2.33;;
9914;SDS011;4996;48.746;9.174;2024-01-30T11:40:38;3.70;;;2.50;;
9914;SDS011;4996;48.746;9.174;2024-01-30T11:43:05;6.00;;;2.67;;
9914;SDS011;4996;48.746;9.174;2024-01-30T11:45:32;8.80;;;2.43;;
9914;SDS011;4996;48.746;9.174;2024-01-30T11:47:58;4.37;;;2.80;;
9914;SDS011;4996;48.746;9.174;2024-01-30T11:50:32;2.63;;;2.20;;
9914;SDS011;4996;48.746;9.174;2024-01-30T11:52:59;3.00;;;2.47;;
9914;SDS011;4996;48.746;9.174;2024-01-30T11:55:25;5.10;;;2.40;;
9914;SDS011;4996;48.746;9.174;2024-01-30T11:57:54;12.33;;;3.20;;
9914;SDS011;4996;48.746;9.174;2024-01-30T12:00:20;3.50;;;2.20;;
9914;SDS011;4996;48.746;9.174;2024-01-30T12:02:49;2.07;;;1.87;;
9914;SDS011;4996;48.746;9.174;2024-01-30T12:05:16;3.63;;;2.43;;
9914;SDS011;4996;48.746;9.174;2024-01-30T12:07:44;2.70;;;2.03;;
9914;SDS011;4996;48.746;9.174;2024-01-30T12:10:10;4.80;;;2.80;;
9914;SDS011;4996;48.746;9.174;2024-01-30T12:12:38;3.73;;;2.00;;
9914;SDS011;4996;48.746;9.174;2024-01-30T12:15:06;3.57;;;2.33;;
9914;SDS011;4996;48.746;9.174;2024-01-30T12:17:33;4.23;;;2.10;;
9914;SDS011;4996;48.746;9.174;2024-01-30T12:20:02;2.23;;;1.90;;
9914;SDS011;4996;48.746;9.174;2024-01-30T12:22:39;2.20;;;1.50;;
9914;SDS011;4996;48.746;9.174;2024-01-30T12:25:10;7.43;;;3.60;;
9914;SDS011;4996;48.746;9.174;2024-01-30T12:27:36;14.90;;;4.90;;
9914;SDS011;4996;48.746;9.174;2024-01-30T12:30:06;5.93;;;4.33;;
9914;SDS011;4996;48.746;9.174;2024-01-30T12:32:39;5.53;;;4.07;;
9914;SDS011;4996;48.746;9.174;2024-01-30T12:35:10;7.90;;;4.17;;
9914;SDS011;4996;48.746;9.174;2024-01-30T12:37:36;4.73;;;3.17;;
9914;SDS011;4996;48.746;9.174;2024-01-30T12:40:02;3.10;;;2.50;;
9914;SDS011;4996;48.746;9.174;2024-01-30T12:42:28;3.10;;;2.00;;
9914;SDS011;4996;48.746;9.174;2024-01-30T12:44:53;3.37;;;2.40;;
9914;SDS011;4996;48.746;9.174;2024-01-30T12:47:21;3.33;;;2.17;;
9914;SDS011;4996;48.746;9.174;2024-01-30T12:49:47;4.63;;;2.30;;
9914;SDS011;4996;48.746;9.174;2024-01-30T12:52:13;2.60;;;2.27;;
9914;SDS011;4996;48.746;9.174;2024-01-30T12:54:39;3.07;;;2.40;;
9914;SDS011;4996;48.746;9.174;2024-01-30T12:57:05;3.03;;;2.73;;
9914;SDS011;4996;48.746;9.174;2024-01-30T12:59:31;2.70;;;2.10;;
9914;SDS011;4996;48.746;9.174;2024-01-30T13:01:56;2.90;;;2.30;;
9914;SDS011;4996;48.746;9.174;2024-01-30T13:06:59;2.37;;;1.80;;
9914;SDS011;4996;48.746;9.174;2024-01-30T13:09:25;4.70;;;1.97;;
9914;SDS011;4996;48.746;9.174;2024-01-30T13:11:52;4.50;;;1.63;;
9914;SDS011;4996;48.746;9.174;2024-01-30T13:14:18;2.30;;;2.10;;
9914;SDS011;4996;48.746;9.174;2024-01-30T13:16:43;5.77;;;2.20;;
9914;SDS011;4996;48.746;9.174;2024-01-30T13:19:09;2.67;;;2.03;;
9914;SDS011;4996;48.746;9.174;2024-01-30T13:21:35;2.60;;;1.80;;
9914;SDS011;4996;48.746;9.174;2024-01-30T13:24:00;3.97;;;1.97;;
9914;SDS011;4996;48.746;9.174;2024-01-30T13:26:26;4.67;;;2.43;;
9914;SDS011;4996;48.746;9.174;2024-01-30T13:28:52;4.77;;;1.87;;
9914;SDS011;4996;48.746;9.174;2024-01-30T13:31:17;3.30;;;3.00;;
9914;SDS011;4996;48.746;9.174;2024-01-30T13:33:44;4.53;;;2.07;;
9914;SDS011;4996;48.746;9.174;2024-01-30T13:36:11;2.30;;;2.03;;
9914;SDS011;4996;48.746;9.174;2024-01-30T13:38:36;4.30;;;2.70;;
9914;SDS011;4996;48.746;9.174;2024-01-30T13:41:03;5.53;;;2.70;;
9914;SDS011;4996;48.746;9.174;2024-01-30T13:43:28;2.97;;;2.30;;
9914;SDS011;4996;48.746;9.174;2024-01-30T13:45:54;3.00;;;2.40;;
9914;SDS011;4996;48.746;9.174;2024-01-30T13:48:20;3.67;;;2.33;;
9914;SDS011;4996;48.746;9.174;2024-01-30T13:50:45;3.73;;;2.37;;
9914;SDS011;4996;48.746;9.174;2024-01-30T13:53:11;6.80;;;2.00;;
9914;SDS011;4996;48.746;9.174;2024-01-30T13:55:36;3.93;;;1.93;;
9914;SDS011;4996;48.746;9.174;2024-01-30T13:58:03;3.77;;;2.70;;
9914;SDS011;4996;48.746;9.174;2024-01-30T14:00:28;3.13;;;2.20;;
9914;SDS011;4996;48.746;9.174;2024-01-30T14:02:54;3.50;;;1.60;;
9914;SDS011;4996;48.746;9.174;2024-01-30T14:05:20;3.27;;;2.33;;
9914;SDS011;4996;48.746;9.174;2024-01-30T14:07:47;3.87;;;2.43;;
9914;SDS011;4996;48.746;9.174;2024-01-30T14:10:12;2.37;;;1.73;;
9914;SDS011;4996;48.746;9.174;2024-01-30T14:12:38;9.70;;;2.47;;
9914;SDS011;4996;48.746;9.174;2024-01-30T14:15:04;2.40;;;1.90;;
9914;SDS011;4996;48.746;9.174;2024-01-30T14:17:31;2.93;;;1.90;;
9914;SDS011;4996;48.746;9.174;2024-01-30T14:19:57;4.33;;;2.40;;
9914;SDS011;4996;48.746;9.174;2024-01-30T14:22:22;3.53;;;2.57;;
9914;SDS011;4996;48.746;9.174;2024-01-30T14:24:48;3.47;;;2.10;;
9914;SDS011;4996;48.746;9.174;2024-01-30T14:27:13;8.03;;;2.40;;
9914;SDS011;4996;48.746;9.174;2024-01-30T14:29:39;2.43;;;1.80;;
9914;SDS011;4996;48.746;9.174;2024-01-30T14:32:04;5.57;;;2.13;;
9914;SDS011;4996;48.746;9.174;2024-01-30T14:34:30;8.60;;;2.60;;
9914;SDS011;4996;48.746;9.174;2024-01-30T14:36:56;3.27;;;1.90;;
9914;SDS011;4996;48.746;9.174;2024-01-30T14:39:21;3.67;;;2.10;;
9914;SDS011;4996;48.746;9.174;2024-01-30T14:41:47;6.07;;;2.37;;
9914;SDS011;4996;48.746;9.174;2024-01-30T14:44:12;6.57;;;2.27;;
9914;SDS011;4996;48.746;9.174;2024-01-30T14:46:38;3.00;;;2.07;;
9914;SDS011;4996;48.746;9.174;2024-01-30T14:49:05;3.80;;;2.43;;
9914;SDS011;4996;48.746;9.174;2024-01-30T14:51:31;7.20;;;4.37;;
9914;SDS011;4996;48.746;9.174;2024-01-30T14:53:58;10.80;;;7.27;;
9914;SDS011;4996;48.746;9.174;2024-01-30T14:56:24;10.50;;;7.37;;
9914;SDS011;4996;48.746;9.174;2024-01-30T14:58:49;10.73;;;7.33;;
9914;SDS011;4996;48.746;9.174;2024-01-30T15:01:15;17.50;;;7.03;;
9914;SDS011;4996;48.746;9.174;2024-01-30T15:03:40;17.73;;;7.30;;
9914;SDS011;4996;48.746;9.174;2024-01-30T15:06:08;10.70;;;7.77;;
9914;SDS011;4996;48.746;9.174;2024-01-30T15:08:33;12.10;;;7.70;;
9914;SDS011;4996;48.746;9.174;2024-01-30T15:10:59;18.17;;;9.00;;
9914;SDS011;4996;48.746;9.174;2024-01-30T15:13:25;19.97;;;9.50;;
9914;SDS011;4996;48.746;9.174;2024-01-30T15:15:50;21.67;;;9.80;;